sensor_id;sensor_type;location;lat;lon;timestamp;temperature;humidity
5164;DHT22;2601;50.224;10.126;2023-11-21T00:01:36;16.90;85.10
5164;DHT22;2601;50.224;10.126;2023-11-21T00:04:02;16.90;85.20
5164;DHT22;2601;50.224;10.126;2023-11-21T00:06:28;16.90;85.10
5164;DHT22;2601;50.224;10.126;2023-11-21T00:08:55;16.90;85.20
5164;DHT22;2601;50.224;10.126;2023-11-21T00:11:21;16.90;85.20
5164;DHT22;2601;50.224;10.126;2023-11-21T00:13:47;16.90;85.20
5164;DHT22;2601;50.224;10.126;2023-11-21T00:16:13;16.90;85.20
5164;DHT22;2601;50.224;10.126;2023-11-21T00:18:38;16.90;85.20
5164;DHT22;2601;50.224;10.126;2023-11-21T00:21:05;16.90;85.20
5164;DHT22;2601;50.224;10.126;2023-11-21T00:23:30;16.90;85.20
5164;DHT22;2601;50.224;10.126;2023-11-21T00:25:56;16.90;85.30
5164;DHT22;2601;50.224;10.126;2023-11-21T00:28:22;16.90;85.30
5164;DHT22;2601;50.224;10.126;2023-11-21T00:30:47;16.90;85.20
5164;DHT22;2601;50.224;10.126;2023-11-21T00:33:13;16.90;85.30
5164;DHT22;2601;50.224;10.126;2023-11-21T00:35:39;16.90;85.20
5164;DHT22;2601;50.224;10.126;2023-11-21T00:38:04;16.90;85.30
5164;DHT22;2601;50.224;10.126;2023-11-21T00:40:30;16.90;85.30
5164;DHT22;2601;50.224;10.126;2023-11-21T00:42:56;16.80;85.20
5164;DHT22;2601;50.224;10.126;2023-11-21T00:45:21;16.90;85.30
5164;DHT22;2601;50.224;10.126;2023-11-21T00:47:47;16.80;85.20
5164;DHT22;2601;50.224;10.126;2023-11-21T00:50:12;16.90;85.30
5164;DHT22;2601;50.224;10.126;2023-11-21T00:52:38;16.90;85.30
5164;DHT22;2601;50.224;10.126;2023-11-21T00:55:05;16.90;85.40
5164;DHT22;2601;50.224;10.126;2023-11-21T00:57:32;16.90;85.30
5164;DHT22;2601;50.224;10.126;2023-11-21T00:59:58;16.90;85.30
5164;DHT22;2601;50.224;10.126;2023-11-21T01:02:24;16.90;85.40
5164;DHT22;2601;50.224;10.126;2023-11-21T01:04:50;16.90;85.40
5164;DHT22;2601;50.224;10.126;2023-11-21T01:07:16;16.90;85.40
5164;DHT22;2601;50.224;10.126;2023-11-21T01:09:41;16.90;85.40
5164;DHT22;2601;50.224;10.126;2023-11-21T01:12:07;16.80;85.20
5164;DHT22;2601;50.224;10.126;2023-11-21T01:14:33;16.90;85.40
5164;DHT22;2601;50.224;10.126;2023-11-21T01:16:58;16.90;85.40
5164;DHT22;2601;50.224;10.126;2023-11-21T01:19:24;16.90;85.40
5164;DHT22;2601;50.224;10.126;2023-11-21T01:21:52;16.90;85.40
5164;DHT22;2601;50.224;10.126;2023-11-21T01:24:18;16.90;85.40
5164;DHT22;2601;50.224;10.126;2023-11-21T01:26:43;16.90;85.40
5164;DHT22;2601;50.224;10.126;2023-11-21T01:29:12;16.80;85.20
5164;DHT22;2601;50.224;10.126;2023-11-21T01:31:37;16.90;85.30
5164;DHT22;2601;50.224;10.126;2023-11-21T01:34:03;16.90;85.40
5164;DHT22;2601;50.224;10.126;2023-11-21T01:36:32;16.90;85.40
5164;DHT22;2601;50.224;10.126;2023-11-21T01:38:58;16.90;85.40
5164;DHT22;2601;50.224;10.126;2023-11-21T01:41:25;16.90;85.30
5164;DHT22;2601;50.224;10.126;2023-11-21T01:43:52;16.90;85.40
5164;DHT22;2601;50.224;10.126;2023-11-21T01:46:19;16.90;85.40
5164;DHT22;2601;50.224;10.126;2023-11-21T01:48:46;16.90;85.40
5164;DHT22;2601;50.224;10.126;2023-11-21T01:51:12;16.80;85.20
5164;DHT22;2601;50.224;10.126;2023-11-21T01:53:39;16.90;85.40
5164;DHT22;2601;50.224;10.126;2023-11-21T01:56:05;16.80;85.20
5164;DHT22;2601;50.224;10.126;2023-11-21T01:58:33;16.80;85.20
5164;DHT22;2601;50.224;10.126;2023-11-21T02:00:59;16.90;85.40
5164;DHT22;2601;50.224;10.126;2023-11-21T02:03:24;16.90;85.30
5164;DHT22;2601;50.224;10.126;2023-11-21T02:05:52;16.90;85.30
5164;DHT22;2601;50.224;10.126;2023-11-21T02:08:19;16.90;85.30
5164;DHT22;2601;50.224;10.126;2023-11-21T02:10:45;16.90;85.30
5164;DHT22;2601;50.224;10.126;2023-11-21T02:13:11;16.90;85.30
5164;DHT22;2601;50.224;10.126;2023-11-21T02:15:37;16.90;85.30
5164;DHT22;2601;50.224;10.126;2023-11-21T02:18:04;16.90;85.30
5164;DHT22;2601;50.224;10.126;2023-11-21T02:20:31;16.80;85.20
5164;DHT22;2601;50.224;10.126;2023-11-21T02:23:00;16.80;85.20
5164;DHT22;2601;50.224;10.126;2023-11-21T02:25:28;16.80;85.20
5164;DHT22;2601;50.224;10.126;2023-11-21T02:27:55;16.80;85.20
5164;DHT22;2601;50.224;10.126;2023-11-21T02:30:21;16.80;85.20
5164;DHT22;2601;50.224;10.126;2023-11-21T02:32:50;16.80;85.20
5164;DHT22;2601;50.224;10.126;2023-11-21T02:35:19;16.80;85.20
5164;DHT22;2601;50.224;10.126;2023-11-21T02:37:47;16.80;85.30
5164;DHT22;2601;50.224;10.126;2023-11-21T02:40:13;16.80;85.20
5164;DHT22;2601;50.224;10.126;2023-11-21T02:42:43;16.80;85.20
5164;DHT22;2601;50.224;10.126;2023-11-21T02:45:09;16.80;85.20
5164;DHT22;2601;50.224;10.126;2023-11-21T02:47:38;16.80;85.20
5164;DHT22;2601;50.224;10.126;2023-11-21T02:50:04;16.80;85.20
5164;DHT22;2601;50.224;10.126;2023-11-21T02:52:31;16.80;85.20
5164;DHT22;2601;50.224;10.126;2023-11-21T02:54:58;16.80;85.30
5164;DHT22;2601;50.224;10.126;2023-11-21T02:57:24;16.80;85.20
5164;DHT22;2601;50.224;10.126;2023-11-21T02:59:49;16.80;85.20
5164;DHT22;2601;50.224;10.126;2023-11-21T03:02:15;16.80;85.20
5164;DHT22;2601;50.224;10.126;2023-11-21T03:04:41;16.80;85.20
5164;DHT22;2601;50.224;10.126;2023-11-21T03:07:08;16.80;85.20
5164;DHT22;2601;50.224;10.126;2023-11-21T03:09:34;16.80;85.30
5164;DHT22;2601;50.224;10.126;2023-11-21T03:11:59;16.60;85.00
5164;DHT22;2601;50.224;10.126;2023-11-21T03:14:25;16.80;85.20
5164;DHT22;2601;50.224;10.126;2023-11-21T03:16:50;16.90;85.40
5164;DHT22;2601;50.224;10.126;2023-11-21T03:19:16;16.80;85.30
5164;DHT22;2601;50.224;10.126;2023-11-21T03:21:42;16.80;85.40
5164;DHT22;2601;50.224;10.126;2023-11-21T03:24:08;16.80;85.40
5164;DHT22;2601;50.224;10.126;2023-11-21T03:26:33;16.80;85.40
5164;DHT22;2601;50.224;10.126;2023-11-21T03:28:59;16.80;85.40
5164;DHT22;2601;50.224;10.126;2023-11-21T03:31:25;16.80;85.40
5164;DHT22;2601;50.224;10.126;2023-11-21T03:33:52;16.80;85.30
5164;DHT22;2601;50.224;10.126;2023-11-21T03:36:19;16.80;85.40
5164;DHT22;2601;50.224;10.126;2023-11-21T03:38:45;16.80;85.40
5164;DHT22;2601;50.224;10.126;2023-11-21T03:41:10;16.80;85.40
5164;DHT22;2601;50.224;10.126;2023-11-21T03:43:36;16.80;85.40
5164;DHT22;2601;50.224;10.126;2023-11-21T03:46:03;16.80;85.40
5164;DHT22;2601;50.224;10.126;2023-11-21T03:48:28;16.80;85.40
5164;DHT22;2601;50.224;10.126;2023-11-21T03:50:54;17.30;85.90
5164;DHT22;2601;50.224;10.126;2023-11-21T03:53:19;16.80;85.40
5164;DHT22;2601;50.224;10.126;2023-11-21T03:55:45;16.80;85.40
5164;DHT22;2601;50.224;10.126;2023-11-21T03:58:11;16.90;85.50
5164;DHT22;2601;50.224;10.126;2023-11-21T04:00:36;16.80;85.40
5164;DHT22;2601;50.224;10.126;2023-11-21T04:03:02;16.80;85.50
5164;DHT22;2601;50.224;10.126;2023-11-21T04:05:28;16.80;85.40
5164;DHT22;2601;50.224;10.126;2023-11-21T04:07:54;16.90;85.50
5164;DHT22;2601;50.224;10.126;2023-11-21T04:10:19;16.80;85.40
5164;DHT22;2601;50.224;10.126;2023-11-21T04:12:45;16.90;85.40
5164;DHT22;2601;50.224;10.126;2023-11-21T04:15:11;16.90;85.50
5164;DHT22;2601;50.224;10.126;2023-11-21T04:17:38;16.80;85.30
5164;DHT22;2601;50.224;10.126;2023-11-21T04:20:05;16.80;85.40
5164;DHT22;2601;50.224;10.126;2023-11-21T04:22:36;16.90;85.50
5164;DHT22;2601;50.224;10.126;2023-11-21T04:25:02;16.80;85.40
5164;DHT22;2601;50.224;10.126;2023-11-21T04:27:27;16.80;85.40
5164;DHT22;2601;50.224;10.126;2023-11-21T04:29:53;16.90;85.50
5164;DHT22;2601;50.224;10.126;2023-11-21T04:32:19;16.90;85.40
5164;DHT22;2601;50.224;10.126;2023-11-21T04:34:44;16.80;85.40
5164;DHT22;2601;50.224;10.126;2023-11-21T04:37:10;16.80;85.30
5164;DHT22;2601;50.224;10.126;2023-11-21T04:39:36;16.80;85.40
5164;DHT22;2601;50.224;10.126;2023-11-21T04:42:01;16.80;85.40
5164;DHT22;2601;50.224;10.126;2023-11-21T04:44:27;16.80;85.40
5164;DHT22;2601;50.224;10.126;2023-11-21T04:46:53;16.90;85.50
5164;DHT22;2601;50.224;10.126;2023-11-21T04:49:18;16.90;85.50
5164;DHT22;2601;50.224;10.126;2023-11-21T04:51:44;16.80;85.40
5164;DHT22;2601;50.224;10.126;2023-11-21T04:54:10;16.90;85.50
5164;DHT22;2601;50.224;10.126;2023-11-21T04:56:35;16.80;85.40
5164;DHT22;2601;50.224;10.126;2023-11-21T04:59:01;16.80;85.40
5164;DHT22;2601;50.224;10.126;2023-11-21T05:01:26;16.90;85.50
5164;DHT22;2601;50.224;10.126;2023-11-21T05:03:52;16.80;85.40
5164;DHT22;2601;50.224;10.126;2023-11-21T05:06:18;16.80;85.50
5164;DHT22;2601;50.224;10.126;2023-11-21T05:08:43;16.80;85.40
5164;DHT22;2601;50.224;10.126;2023-11-21T05:11:09;16.90;85.60
5164;DHT22;2601;50.224;10.126;2023-11-21T05:13:36;16.90;85.60
5164;DHT22;2601;50.224;10.126;2023-11-21T05:16:02;16.80;85.50
5164;DHT22;2601;50.224;10.126;2023-11-21T05:18:32;16.90;85.60
5164;DHT22;2601;50.224;10.126;2023-11-21T05:20:58;16.90;85.60
5164;DHT22;2601;50.224;10.126;2023-11-21T05:23:23;16.90;85.60
5164;DHT22;2601;50.224;10.126;2023-11-21T05:25:49;16.80;85.60
5164;DHT22;2601;50.224;10.126;2023-11-21T05:28:15;16.90;85.60
5164;DHT22;2601;50.224;10.126;2023-11-21T05:30:40;16.80;85.50
5164;DHT22;2601;50.224;10.126;2023-11-21T05:33:06;16.90;85.60
5164;DHT22;2601;50.224;10.126;2023-11-21T05:35:31;16.90;85.70
5164;DHT22;2601;50.224;10.126;2023-11-21T05:37:57;16.90;85.70
5164;DHT22;2601;50.224;10.126;2023-11-21T05:40:23;16.90;85.70
5164;DHT22;2601;50.224;10.126;2023-11-21T05:42:48;16.90;85.60
5164;DHT22;2601;50.224;10.126;2023-11-21T05:45:14;16.90;85.70
5164;DHT22;2601;50.224;10.126;2023-11-21T05:47:42;16.90;85.60
5164;DHT22;2601;50.224;10.126;2023-11-21T05:50:10;16.90;85.60
5164;DHT22;2601;50.224;10.126;2023-11-21T05:52:39;16.90;85.60
5164;DHT22;2601;50.224;10.126;2023-11-21T05:55:08;16.90;85.60
5164;DHT22;2601;50.224;10.126;2023-11-21T05:57:38;16.90;85.70
5164;DHT22;2601;50.224;10.126;2023-11-21T06:00:14;16.90;85.60
5164;DHT22;2601;50.224;10.126;2023-11-21T06:02:50;16.90;85.70
5164;DHT22;2601;50.224;10.126;2023-11-21T06:05:18;16.90;85.70
5164;DHT22;2601;50.224;10.126;2023-11-21T06:07:44;16.80;86.20
5164;DHT22;2601;50.224;10.126;2023-11-21T06:10:11;16.90;85.70
5164;DHT22;2601;50.224;10.126;2023-11-21T06:12:39;16.90;85.70
5164;DHT22;2601;50.224;10.126;2023-11-21T06:15:06;16.90;85.70
5164;DHT22;2601;50.224;10.126;2023-11-21T06:17:37;16.90;85.70
5164;DHT22;2601;50.224;10.126;2023-11-21T06:20:03;16.90;86.70
5164;DHT22;2601;50.224;10.126;2023-11-21T06:22:36;16.90;85.90
5164;DHT22;2601;50.224;10.126;2023-11-21T06:25:01;16.90;85.90
5164;DHT22;2601;50.224;10.126;2023-11-21T06:27:28;17.00;86.10
5164;DHT22;2601;50.224;10.126;2023-11-21T06:29:55;17.00;86.20
5164;DHT22;2601;50.224;10.126;2023-11-21T06:32:20;16.90;86.20
5164;DHT22;2601;50.224;10.126;2023-11-21T06:34:48;17.00;87.10
5164;DHT22;2601;50.224;10.126;2023-11-21T06:37:14;18.10;88.40
5164;DHT22;2601;50.224;10.126;2023-11-21T06:39:40;16.90;86.70
5164;DHT22;2601;50.224;10.126;2023-11-21T06:42:06;17.00;86.50
5164;DHT22;2601;50.224;10.126;2023-11-21T06:44:32;17.00;87.40
5164;DHT22;2601;50.224;10.126;2023-11-21T06:46:59;17.00;87.00
5164;DHT22;2601;50.224;10.126;2023-11-21T06:49:24;17.00;86.60
5164;DHT22;2601;50.224;10.126;2023-11-21T06:51:51;17.00;86.60
5164;DHT22;2601;50.224;10.126;2023-11-21T06:54:16;17.00;86.70
5164;DHT22;2601;50.224;10.126;2023-11-21T06:56:42;17.00;86.70
5164;DHT22;2601;50.224;10.126;2023-11-21T06:59:08;16.90;86.60
5164;DHT22;2601;50.224;10.126;2023-11-21T07:01:34;16.90;86.60
5164;DHT22;2601;50.224;10.126;2023-11-21T07:04:05;17.00;86.70
5164;DHT22;2601;50.224;10.126;2023-11-21T07:06:31;17.00;86.60
5164;DHT22;2601;50.224;10.126;2023-11-21T07:08:57;16.90;86.60
5164;DHT22;2601;50.224;10.126;2023-11-21T07:11:24;16.90;86.60
5164;DHT22;2601;50.224;10.126;2023-11-21T07:13:50;17.00;86.70
5164;DHT22;2601;50.224;10.126;2023-11-21T07:16:16;17.00;86.80
5164;DHT22;2601;50.224;10.126;2023-11-21T07:18:41;17.00;86.80
5164;DHT22;2601;50.224;10.126;2023-11-21T07:21:07;17.00;86.90
5164;DHT22;2601;50.224;10.126;2023-11-21T07:23:34;17.00;86.70
5164;DHT22;2601;50.224;10.126;2023-11-21T07:25:59;17.00;86.70
5164;DHT22;2601;50.224;10.126;2023-11-21T07:28:25;17.00;86.60
5164;DHT22;2601;50.224;10.126;2023-11-21T07:30:51;17.00;86.90
5164;DHT22;2601;50.224;10.126;2023-11-21T07:33:17;17.00;86.90
5164;DHT22;2601;50.224;10.126;2023-11-21T07:35:43;17.00;86.90
5164;DHT22;2601;50.224;10.126;2023-11-21T07:38:08;17.00;86.80
5164;DHT22;2601;50.224;10.126;2023-11-21T07:40:34;17.00;86.70
5164;DHT22;2601;50.224;10.126;2023-11-21T07:43:00;17.00;86.90
5164;DHT22;2601;50.224;10.126;2023-11-21T07:45:25;17.00;86.90
5164;DHT22;2601;50.224;10.126;2023-11-21T07:47:53;17.00;86.80
5164;DHT22;2601;50.224;10.126;2023-11-21T07:50:19;17.00;86.70
5164;DHT22;2601;50.224;10.126;2023-11-21T07:52:46;17.00;86.60
5164;DHT22;2601;50.224;10.126;2023-11-21T07:55:11;17.00;86.80
5164;DHT22;2601;50.224;10.126;2023-11-21T07:57:37;17.00;86.60
5164;DHT22;2601;50.224;10.126;2023-11-21T08:00:04;17.00;86.70
5164;DHT22;2601;50.224;10.126;2023-11-21T08:02:32;17.00;86.60
5164;DHT22;2601;50.224;10.126;2023-11-21T08:04:57;17.00;86.70
5164;DHT22;2601;50.224;10.126;2023-11-21T08:07:23;17.00;86.60
5164;DHT22;2601;50.224;10.126;2023-11-21T08:09:48;17.00;86.60
5164;DHT22;2601;50.224;10.126;2023-11-21T08:12:15;17.00;86.60
5164;DHT22;2601;50.224;10.126;2023-11-21T08:14:41;17.00;86.60
5164;DHT22;2601;50.224;10.126;2023-11-21T08:17:06;17.00;86.60
5164;DHT22;2601;50.224;10.126;2023-11-21T08:19:32;17.00;86.60
5164;DHT22;2601;50.224;10.126;2023-11-21T08:21:58;17.00;86.50
5164;DHT22;2601;50.224;10.126;2023-11-21T08:24:24;17.00;86.50
5164;DHT22;2601;50.224;10.126;2023-11-21T08:26:50;17.00;86.60
5164;DHT22;2601;50.224;10.126;2023-11-21T08:29:17;17.00;86.60
5164;DHT22;2601;50.224;10.126;2023-11-21T08:31:44;17.00;86.50
5164;DHT22;2601;50.224;10.126;2023-11-21T08:34:12;17.00;86.50
5164;DHT22;2601;50.224;10.126;2023-11-21T08:36:42;17.00;86.40
5164;DHT22;2601;50.224;10.126;2023-11-21T08:39:08;17.00;86.40
5164;DHT22;2601;50.224;10.126;2023-11-21T08:41:34;17.00;86.30
5164;DHT22;2601;50.224;10.126;2023-11-21T08:44:02;17.00;86.30
5164;DHT22;2601;50.224;10.126;2023-11-21T08:46:32;17.00;86.40
5164;DHT22;2601;50.224;10.126;2023-11-21T08:49:00;17.00;86.30
5164;DHT22;2601;50.224;10.126;2023-11-21T08:51:26;17.00;86.40
5164;DHT22;2601;50.224;10.126;2023-11-21T08:53:51;17.00;86.30
5164;DHT22;2601;50.224;10.126;2023-11-21T08:56:18;17.00;86.30
5164;DHT22;2601;50.224;10.126;2023-11-21T08:58:45;17.00;86.30
5164;DHT22;2601;50.224;10.126;2023-11-21T09:01:12;17.00;86.30
5164;DHT22;2601;50.224;10.126;2023-11-21T09:03:38;16.90;86.10
5164;DHT22;2601;50.224;10.126;2023-11-21T09:06:04;17.00;86.20
5164;DHT22;2601;50.224;10.126;2023-11-21T09:08:30;17.00;86.10
5164;DHT22;2601;50.224;10.126;2023-11-21T09:10:56;17.00;86.20
5164;DHT22;2601;50.224;10.126;2023-11-21T09:13:22;17.00;86.20
5164;DHT22;2601;50.224;10.126;2023-11-21T09:15:50;17.00;86.30
5164;DHT22;2601;50.224;10.126;2023-11-21T09:18:16;17.00;86.20
5164;DHT22;2601;50.224;10.126;2023-11-21T09:20:42;17.00;86.20
5164;DHT22;2601;50.224;10.126;2023-11-21T09:23:09;17.00;86.10
5164;DHT22;2601;50.224;10.126;2023-11-21T09:25:35;17.00;86.10
5164;DHT22;2601;50.224;10.126;2023-11-21T09:28:03;17.00;86.10
5164;DHT22;2601;50.224;10.126;2023-11-21T09:30:33;17.00;86.00
5164;DHT22;2601;50.224;10.126;2023-11-21T09:32:59;17.00;86.00
5164;DHT22;2601;50.224;10.126;2023-11-21T09:35:26;17.00;86.00
5164;DHT22;2601;50.224;10.126;2023-11-21T09:37:53;17.00;86.00
5164;DHT22;2601;50.224;10.126;2023-11-21T09:40:21;17.00;85.90
5164;DHT22;2601;50.224;10.126;2023-11-21T09:42:54;17.00;85.90
5164;DHT22;2601;50.224;10.126;2023-11-21T09:45:26;17.00;85.80
5164;DHT22;2601;50.224;10.126;2023-11-21T09:47:56;17.00;85.80
5164;DHT22;2601;50.224;10.126;2023-11-21T09:50:23;17.00;85.80
5164;DHT22;2601;50.224;10.126;2023-11-21T09:55:34;17.00;85.80
5164;DHT22;2601;50.224;10.126;2023-11-21T09:58:02;17.00;86.00
5164;DHT22;2601;50.224;10.126;2023-11-21T10:00:29;17.00;86.30
5164;DHT22;2601;50.224;10.126;2023-11-21T10:02:58;17.00;86.40
5164;DHT22;2601;50.224;10.126;2023-11-21T10:05:23;17.00;86.60
5164;DHT22;2601;50.224;10.126;2023-11-21T10:07:50;17.00;86.70
5164;DHT22;2601;50.224;10.126;2023-11-21T10:10:19;17.00;86.60
5164;DHT22;2601;50.224;10.126;2023-11-21T10:12:50;17.00;86.60
5164;DHT22;2601;50.224;10.126;2023-11-21T10:15:21;17.10;86.90
5164;DHT22;2601;50.224;10.126;2023-11-21T10:17:51;17.10;87.00
5164;DHT22;2601;50.224;10.126;2023-11-21T10:20:19;17.10;87.00
5164;DHT22;2601;50.224;10.126;2023-11-21T10:22:45;17.10;87.10
5164;DHT22;2601;50.224;10.126;2023-11-21T10:25:11;17.10;87.10
5164;DHT22;2601;50.224;10.126;2023-11-21T10:27:40;17.10;87.20
5164;DHT22;2601;50.224;10.126;2023-11-21T10:30:07;17.10;87.10
5164;DHT22;2601;50.224;10.126;2023-11-21T10:32:42;17.10;87.20
5164;DHT22;2601;50.224;10.126;2023-11-21T10:35:08;17.10;87.20
5164;DHT22;2601;50.224;10.126;2023-11-21T10:37:39;17.10;87.10
5164;DHT22;2601;50.224;10.126;2023-11-21T10:40:09;17.10;87.10
5164;DHT22;2601;50.224;10.126;2023-11-21T10:42:38;17.10;87.30
5164;DHT22;2601;50.224;10.126;2023-11-21T10:45:05;17.10;87.20
5164;DHT22;2601;50.224;10.126;2023-11-21T10:47:41;17.20;87.40
5164;DHT22;2601;50.224;10.126;2023-11-21T10:50:07;17.10;87.30
5164;DHT22;2601;50.224;10.126;2023-11-21T10:52:37;17.10;87.30
5164;DHT22;2601;50.224;10.126;2023-11-21T10:55:16;17.20;87.40
5164;DHT22;2601;50.224;10.126;2023-11-21T10:57:45;17.20;87.40
5164;DHT22;2601;50.224;10.126;2023-11-21T11:00:14;17.10;87.30
5164;DHT22;2601;50.224;10.126;2023-11-21T11:02:41;17.10;87.30
5164;DHT22;2601;50.224;10.126;2023-11-21T11:05:08;17.20;87.40
5164;DHT22;2601;50.224;10.126;2023-11-21T11:07:40;17.10;87.20
5164;DHT22;2601;50.224;10.126;2023-11-21T11:10:09;17.10;87.40
5164;DHT22;2601;50.224;10.126;2023-11-21T11:12:40;17.20;88.10
5164;DHT22;2601;50.224;10.126;2023-11-21T11:15:07;17.20;87.30
5164;DHT22;2601;50.224;10.126;2023-11-21T11:17:36;17.10;87.30
5164;DHT22;2601;50.224;10.126;2023-11-21T11:20:04;17.20;88.00
5164;DHT22;2601;50.224;10.126;2023-11-21T11:22:40;17.20;87.40
5164;DHT22;2601;50.224;10.126;2023-11-21T11:25:29;17.20;87.40
5164;DHT22;2601;50.224;10.126;2023-11-21T11:28:04;17.20;87.50
5164;DHT22;2601;50.224;10.126;2023-11-21T11:31:00;17.20;87.40
5164;DHT22;2601;50.224;10.126;2023-11-21T11:38:33;17.20;87.30
5164;DHT22;2601;50.224;10.126;2023-11-21T11:41:06;17.20;87.10
5164;DHT22;2601;50.224;10.126;2023-11-21T11:43:32;17.20;86.60
5164;DHT22;2601;50.224;10.126;2023-11-21T11:46:02;17.20;86.70
5164;DHT22;2601;50.224;10.126;2023-11-21T11:48:29;17.20;86.90
5164;DHT22;2601;50.224;10.126;2023-11-21T11:51:04;17.20;86.90
5164;DHT22;2601;50.224;10.126;2023-11-21T11:53:36;17.20;86.90
5164;DHT22;2601;50.224;10.126;2023-11-21T11:58:52;17.10;86.80
5164;DHT22;2601;50.224;10.126;2023-11-21T12:01:19;17.40;87.10
5164;DHT22;2601;50.224;10.126;2023-11-21T12:06:36;17.20;86.80
5164;DHT22;2601;50.224;10.126;2023-11-21T12:09:02;17.10;86.60
5164;DHT22;2601;50.224;10.126;2023-11-21T12:11:32;17.10;86.60
5164;DHT22;2601;50.224;10.126;2023-11-21T12:13:58;17.10;86.70
5164;DHT22;2601;50.224;10.126;2023-11-21T12:16:25;17.10;86.70
5164;DHT22;2601;50.224;10.126;2023-11-21T12:18:53;17.10;86.70
5164;DHT22;2601;50.224;10.126;2023-11-21T12:21:19;17.10;86.60
5164;DHT22;2601;50.224;10.126;2023-11-21T12:23:45;17.10;86.60
5164;DHT22;2601;50.224;10.126;2023-11-21T12:26:13;17.10;86.50
5164;DHT22;2601;50.224;10.126;2023-11-21T12:28:39;17.10;86.50
5164;DHT22;2601;50.224;10.126;2023-11-21T12:31:06;17.10;86.50
5164;DHT22;2601;50.224;10.126;2023-11-21T12:33:33;17.10;86.40
5164;DHT22;2601;50.224;10.126;2023-11-21T12:35:59;17.20;86.50
5164;DHT22;2601;50.224;10.126;2023-11-21T12:38:24;17.10;86.30
5164;DHT22;2601;50.224;10.126;2023-11-21T12:40:50;17.10;86.30
5164;DHT22;2601;50.224;10.126;2023-11-21T12:43:17;17.10;86.20
5164;DHT22;2601;50.224;10.126;2023-11-21T12:45:43;17.10;86.20
5164;DHT22;2601;50.224;10.126;2023-11-21T12:48:09;17.10;86.10
5164;DHT22;2601;50.224;10.126;2023-11-21T12:50:37;17.10;86.10
5164;DHT22;2601;50.224;10.126;2023-11-21T12:53:07;17.10;86.70
5164;DHT22;2601;50.224;10.126;2023-11-21T12:55:38;17.10;86.00
5164;DHT22;2601;50.224;10.126;2023-11-21T12:58:05;17.10;85.90
5164;DHT22;2601;50.224;10.126;2023-11-21T13:00:40;17.10;85.90
5164;DHT22;2601;50.224;10.126;2023-11-21T13:03:09;17.10;85.90
5164;DHT22;2601;50.224;10.126;2023-11-21T13:05:39;17.10;85.90
5164;DHT22;2601;50.224;10.126;2023-11-21T13:08:10;17.10;85.90
5164;DHT22;2601;50.224;10.126;2023-11-21T13:10:39;17.10;85.90
5164;DHT22;2601;50.224;10.126;2023-11-21T13:13:09;17.10;85.80
5164;DHT22;2601;50.224;10.126;2023-11-21T13:15:39;17.10;85.70
5164;DHT22;2601;50.224;10.126;2023-11-21T13:18:06;17.10;85.60
5164;DHT22;2601;50.224;10.126;2023-11-21T13:20:32;17.10;85.60
5164;DHT22;2601;50.224;10.126;2023-11-21T13:22:59;17.10;85.60
5164;DHT22;2601;50.224;10.126;2023-11-21T13:25:29;17.10;85.50
5164;DHT22;2601;50.224;10.126;2023-11-21T13:27:57;17.10;85.50
5164;DHT22;2601;50.224;10.126;2023-11-21T13:30:24;17.10;85.50
5164;DHT22;2601;50.224;10.126;2023-11-21T13:32:59;17.10;85.40
5164;DHT22;2601;50.224;10.126;2023-11-21T13:35:31;17.10;85.40
5164;DHT22;2601;50.224;10.126;2023-11-21T13:38:16;17.10;85.40
5164;DHT22;2601;50.224;10.126;2023-11-21T13:40:47;17.10;85.40
5164;DHT22;2601;50.224;10.126;2023-11-21T13:43:16;17.10;85.40
5164;DHT22;2601;50.224;10.126;2023-11-21T13:45:44;17.10;85.40
5164;DHT22;2601;50.224;10.126;2023-11-21T13:48:12;17.10;85.40
5164;DHT22;2601;50.224;10.126;2023-11-21T13:50:43;17.10;85.30
5164;DHT22;2601;50.224;10.126;2023-11-21T13:53:14;17.10;85.30
5164;DHT22;2601;50.224;10.126;2023-11-21T13:55:50;17.10;85.30
5164;DHT22;2601;50.224;10.126;2023-11-21T13:58:16;17.10;85.30
5164;DHT22;2601;50.224;10.126;2023-11-21T14:00:49;17.10;85.20
5164;DHT22;2601;50.224;10.126;2023-11-21T14:03:22;17.00;85.10
5164;DHT22;2601;50.224;10.126;2023-11-21T14:05:50;17.00;85.20
5164;DHT22;2601;50.224;10.126;2023-11-21T14:08:20;17.00;85.20
5164;DHT22;2601;50.224;10.126;2023-11-21T14:10:47;17.00;85.20
5164;DHT22;2601;50.224;10.126;2023-11-21T14:13:19;17.10;85.20
5164;DHT22;2601;50.224;10.126;2023-11-21T14:15:48;17.10;85.20
5164;DHT22;2601;50.224;10.126;2023-11-21T14:18:16;17.00;85.10
5164;DHT22;2601;50.224;10.126;2023-11-21T14:20:43;17.00;85.10
5164;DHT22;2601;50.224;10.126;2023-11-21T14:23:10;17.00;85.10
5164;DHT22;2601;50.224;10.126;2023-11-21T14:25:37;17.00;85.10
5164;DHT22;2601;50.224;10.126;2023-11-21T14:28:03;17.00;85.00
5164;DHT22;2601;50.224;10.126;2023-11-21T14:30:34;17.00;85.10
5164;DHT22;2601;50.224;10.126;2023-11-21T14:33:02;17.00;85.00
5164;DHT22;2601;50.224;10.126;2023-11-21T14:35:27;17.70;85.80
5164;DHT22;2601;50.224;10.126;2023-11-21T14:37:55;17.00;85.00
5164;DHT22;2601;50.224;10.126;2023-11-21T14:40:21;17.00;85.00
5164;DHT22;2601;50.224;10.126;2023-11-21T14:42:50;17.00;85.00
5164;DHT22;2601;50.224;10.126;2023-11-21T14:45:19;17.00;84.90
5164;DHT22;2601;50.224;10.126;2023-11-21T14:47:48;17.00;85.00
5164;DHT22;2601;50.224;10.126;2023-11-21T14:50:34;17.10;85.00
5164;DHT22;2601;50.224;10.126;2023-11-21T14:53:35;17.00;85.00
5164;DHT22;2601;50.224;10.126;2023-11-21T14:56:20;17.00;85.00
5164;DHT22;2601;50.224;10.126;2023-11-21T14:58:56;17.00;84.90
5164;DHT22;2601;50.224;10.126;2023-11-21T15:01:26;17.00;84.90
5164;DHT22;2601;50.224;10.126;2023-11-21T15:04:10;17.00;84.90
5164;DHT22;2601;50.224;10.126;2023-11-21T15:06:55;17.00;84.90
5164;DHT22;2601;50.224;10.126;2023-11-21T15:09:23;17.00;84.90
5164;DHT22;2601;50.224;10.126;2023-11-21T15:12:00;17.00;85.00
5164;DHT22;2601;50.224;10.126;2023-11-21T15:14:46;17.00;85.00
5164;DHT22;2601;50.224;10.126;2023-11-21T15:17:16;17.00;85.00
5164;DHT22;2601;50.224;10.126;2023-11-21T15:19:51;17.00;84.90
5164;DHT22;2601;50.224;10.126;2023-11-21T15:22:17;17.00;85.00
5164;DHT22;2601;50.224;10.126;2023-11-21T15:24:43;17.00;85.00
5164;DHT22;2601;50.224;10.126;2023-11-21T15:27:12;17.00;85.00
5164;DHT22;2601;50.224;10.126;2023-11-21T15:29:40;17.00;84.90
5164;DHT22;2601;50.224;10.126;2023-11-21T15:32:07;17.00;84.90
5164;DHT22;2601;50.224;10.126;2023-11-21T15:34:34;17.00;85.60
5164;DHT22;2601;50.224;10.126;2023-11-21T15:36:59;17.00;85.00
5164;DHT22;2601;50.224;10.126;2023-11-21T15:39:25;17.00;85.00
5164;DHT22;2601;50.224;10.126;2023-11-21T15:41:53;17.00;85.00
5164;DHT22;2601;50.224;10.126;2023-11-21T15:44:19;17.00;85.00
5164;DHT22;2601;50.224;10.126;2023-11-21T15:46:45;17.00;85.00
5164;DHT22;2601;50.224;10.126;2023-11-21T15:49:11;17.00;85.00
5164;DHT22;2601;50.224;10.126;2023-11-21T15:51:45;17.00;85.00
5164;DHT22;2601;50.224;10.126;2023-11-21T15:54:12;17.00;85.00
5164;DHT22;2601;50.224;10.126;2023-11-21T15:56:38;17.00;85.00
5164;DHT22;2601;50.224;10.126;2023-11-21T15:59:04;17.00;85.00
5164;DHT22;2601;50.224;10.126;2023-11-21T16:01:33;17.00;85.00